sensor_id;sensor_type;location;lat;lon;timestamp;temperature;humidity
2957;DHT22;1488;51.548;7.222;2022-09-29T00:00:48;23.40;70.00
2957;DHT22;1488;51.548;7.222;2022-09-29T00:03:15;23.40;70.00
2957;DHT22;1488;51.548;7.222;2022-09-29T00:05:46;23.30;69.80
2957;DHT22;1488;51.548;7.222;2022-09-29T00:08:15;23.40;69.90
2957;DHT22;1488;51.548;7.222;2022-09-29T00:10:43;23.30;69.70
2957;DHT22;1488;51.548;7.222;2022-09-29T00:13:10;23.30;69.70
2957;DHT22;1488;51.548;7.222;2022-09-29T00:15:37;23.30;69.60
2957;DHT22;1488;51.548;7.222;2022-09-29T00:18:04;23.30;69.60
2957;DHT22;1488;51.548;7.222;2022-09-29T00:20:31;23.30;69.60
2957;DHT22;1488;51.548;7.222;2022-09-29T00:22:58;23.30;69.50
2957;DHT22;1488;51.548;7.222;2022-09-29T00:25:25;23.30;69.50
2957;DHT22;1488;51.548;7.222;2022-09-29T00:27:53;23.30;69.50
2957;DHT22;1488;51.548;7.222;2022-09-29T00:30:20;23.30;69.50
2957;DHT22;1488;51.548;7.222;2022-09-29T00:32:47;23.30;69.40
2957;DHT22;1488;51.548;7.222;2022-09-29T00:35:13;23.30;69.50
2957;DHT22;1488;51.548;7.222;2022-09-29T00:37:42;23.30;69.40
2957;DHT22;1488;51.548;7.222;2022-09-29T00:40:09;23.30;69.30
2957;DHT22;1488;51.548;7.222;2022-09-29T00:42:36;23.30;69.30
2957;DHT22;1488;51.548;7.222;2022-09-29T00:45:13;23.30;69.30
2957;DHT22;1488;51.548;7.222;2022-09-29T00:47:42;23.30;69.20
2957;DHT22;1488;51.548;7.222;2022-09-29T00:50:13;23.30;69.20
2957;DHT22;1488;51.548;7.222;2022-09-29T00:52:45;23.20;69.10
2957;DHT22;1488;51.548;7.222;2022-09-29T00:55:16;23.30;69.20
2957;DHT22;1488;51.548;7.222;2022-09-29T00:57:46;23.30;69.20
2957;DHT22;1488;51.548;7.222;2022-09-29T01:00:16;23.30;69.10
2957;DHT22;1488;51.548;7.222;2022-09-29T01:02:45;23.20;69.00
2957;DHT22;1488;51.548;7.222;2022-09-29T01:05:16;23.20;69.00
2957;DHT22;1488;51.548;7.222;2022-09-29T01:07:44;23.40;69.10
2957;DHT22;1488;51.548;7.222;2022-09-29T01:10:12;23.20;68.90
2957;DHT22;1488;51.548;7.222;2022-09-29T01:12:41;23.50;69.30
2957;DHT22;1488;51.548;7.222;2022-09-29T01:15:09;23.20;68.90
2957;DHT22;1488;51.548;7.222;2022-09-29T01:17:38;23.20;68.80
2957;DHT22;1488;51.548;7.222;2022-09-29T01:20:10;23.40;69.00
2957;DHT22;1488;51.548;7.222;2022-09-29T01:23:05;23.20;68.80
2957;DHT22;1488;51.548;7.222;2022-09-29T01:25:55;23.20;68.70
2957;DHT22;1488;51.548;7.222;2022-09-29T01:28:46;23.20;68.70
2957;DHT22;1488;51.548;7.222;2022-09-29T01:31:27;23.20;68.70
2957;DHT22;1488;51.548;7.222;2022-09-29T01:33:59;23.20;68.70
2957;DHT22;1488;51.548;7.222;2022-09-29T01:36:37;23.20;68.70
2957;DHT22;1488;51.548;7.222;2022-09-29T01:39:12;23.20;68.70
2957;DHT22;1488;51.548;7.222;2022-09-29T01:41:45;23.20;68.60
2957;DHT22;1488;51.548;7.222;2022-09-29T01:44:19;23.20;68.60
2957;DHT22;1488;51.548;7.222;2022-09-29T01:46:51;23.30;68.70
2957;DHT22;1488;51.548;7.222;2022-09-29T01:49:21;23.20;68.50
2957;DHT22;1488;51.548;7.222;2022-09-29T01:51:51;23.20;68.50
2957;DHT22;1488;51.548;7.222;2022-09-29T01:54:23;23.20;68.50
2957;DHT22;1488;51.548;7.222;2022-09-29T01:56:53;23.20;68.50
2957;DHT22;1488;51.548;7.222;2022-09-29T01:59:27;23.20;68.50
2957;DHT22;1488;51.548;7.222;2022-09-29T02:01:59;23.20;69.30
2957;DHT22;1488;51.548;7.222;2022-09-29T02:04:31;23.10;68.30
2957;DHT22;1488;51.548;7.222;2022-09-29T02:07:02;23.20;68.40
2957;DHT22;1488;51.548;7.222;2022-09-29T02:09:37;23.10;68.30
2957;DHT22;1488;51.548;7.222;2022-09-29T02:12:04;23.10;69.10
2957;DHT22;1488;51.548;7.222;2022-09-29T02:14:36;23.20;68.30
2957;DHT22;1488;51.548;7.222;2022-09-29T02:17:09;23.10;68.60
2957;DHT22;1488;51.548;7.222;2022-09-29T02:19:39;23.10;68.10
2957;DHT22;1488;51.548;7.222;2022-09-29T02:22:08;23.30;68.30
2957;DHT22;1488;51.548;7.222;2022-09-29T02:24:35;23.10;68.10
2957;DHT22;1488;51.548;7.222;2022-09-29T02:27:02;23.10;68.00
2957;DHT22;1488;51.548;7.222;2022-09-29T02:29:31;23.10;68.00
2957;DHT22;1488;51.548;7.222;2022-09-29T02:31:58;23.10;68.00
2957;DHT22;1488;51.548;7.222;2022-09-29T02:34:29;23.10;67.90
2957;DHT22;1488;51.548;7.222;2022-09-29T02:37:04;23.10;67.90
2957;DHT22;1488;51.548;7.222;2022-09-29T02:39:42;23.10;67.90
2957;DHT22;1488;51.548;7.222;2022-09-29T02:42:19;23.10;67.90
2957;DHT22;1488;51.548;7.222;2022-09-29T02:45:10;23.20;68.10
2957;DHT22;1488;51.548;7.222;2022-09-29T02:47:50;23.10;67.90
2957;DHT22;1488;51.548;7.222;2022-09-29T02:50:51;23.10;67.90
2957;DHT22;1488;51.548;7.222;2022-09-29T02:53:34;23.10;67.80
2957;DHT22;1488;51.548;7.222;2022-09-29T02:56:10;23.20;68.00
2957;DHT22;1488;51.548;7.222;2022-09-29T02:58:42;23.10;67.90
2957;DHT22;1488;51.548;7.222;2022-09-29T03:01:11;23.00;67.70
2957;DHT22;1488;51.548;7.222;2022-09-29T03:03:38;23.00;67.70
2957;DHT22;1488;51.548;7.222;2022-09-29T03:06:07;23.00;67.60
2957;DHT22;1488;51.548;7.222;2022-09-29T03:08:34;23.00;67.60
2957;DHT22;1488;51.548;7.222;2022-09-29T03:11:01;23.00;67.70
2957;DHT22;1488;51.548;7.222;2022-09-29T03:13:27;23.00;67.60
2957;DHT22;1488;51.548;7.222;2022-09-29T03:15:54;23.00;67.60
2957;DHT22;1488;51.548;7.222;2022-09-29T03:18:21;23.00;67.90
2957;DHT22;1488;51.548;7.222;2022-09-29T03:20:48;23.00;67.50
2957;DHT22;1488;51.548;7.222;2022-09-29T03:23:16;23.00;67.60
2957;DHT22;1488;51.548;7.222;2022-09-29T03:25:43;23.00;67.50
2957;DHT22;1488;51.548;7.222;2022-09-29T03:28:10;23.00;67.50
2957;DHT22;1488;51.548;7.222;2022-09-29T03:30:37;23.00;67.40
2957;DHT22;1488;51.548;7.222;2022-09-29T03:33:04;23.00;67.40
2957;DHT22;1488;51.548;7.222;2022-09-29T03:35:30;23.00;67.40
2957;DHT22;1488;51.548;7.222;2022-09-29T03:37:58;23.00;67.40
2957;DHT22;1488;51.548;7.222;2022-09-29T03:40:26;23.00;67.30
2957;DHT22;1488;51.548;7.222;2022-09-29T03:42:53;23.00;67.30
2957;DHT22;1488;51.548;7.222;2022-09-29T03:45:20;23.00;67.30
2957;DHT22;1488;51.548;7.222;2022-09-29T03:47:47;23.00;67.30
2957;DHT22;1488;51.548;7.222;2022-09-29T03:50:14;23.00;67.30
2957;DHT22;1488;51.548;7.222;2022-09-29T03:52:40;23.00;67.30
2957;DHT22;1488;51.548;7.222;2022-09-29T03:55:08;23.00;67.20
2957;DHT22;1488;51.548;7.222;2022-09-29T03:57:36;23.00;67.20
2957;DHT22;1488;51.548;7.222;2022-09-29T04:00:03;23.00;67.20
2957;DHT22;1488;51.548;7.222;2022-09-29T04:02:30;23.00;67.20
2957;DHT22;1488;51.548;7.222;2022-09-29T04:04:59;23.00;67.20
2957;DHT22;1488;51.548;7.222;2022-09-29T04:07:25;22.90;67.10
2957;DHT22;1488;51.548;7.222;2022-09-29T04:09:52;22.90;67.10
2957;DHT22;1488;51.548;7.222;2022-09-29T04:12:19;22.90;67.10
2957;DHT22;1488;51.548;7.222;2022-09-29T04:14:47;22.90;67.10
2957;DHT22;1488;51.548;7.222;2022-09-29T04:17:14;23.00;67.20
2957;DHT22;1488;51.548;7.222;2022-09-29T04:19:40;22.90;67.00
2957;DHT22;1488;51.548;7.222;2022-09-29T04:22:07;22.90;67.00
2957;DHT22;1488;51.548;7.222;2022-09-29T04:24:35;22.90;67.80
2957;DHT22;1488;51.548;7.222;2022-09-29T04:27:03;22.90;66.90
2957;DHT22;1488;51.548;7.222;2022-09-29T04:29:29;22.90;66.90
2957;DHT22;1488;51.548;7.222;2022-09-29T04:31:58;22.90;67.00
2957;DHT22;1488;51.548;7.222;2022-09-29T04:34:24;22.90;66.90
2957;DHT22;1488;51.548;7.222;2022-09-29T04:36:51;22.90;66.80
2957;DHT22;1488;51.548;7.222;2022-09-29T04:39:18;22.90;66.80
2957;DHT22;1488;51.548;7.222;2022-09-29T04:41:45;22.90;66.80
2957;DHT22;1488;51.548;7.222;2022-09-29T04:44:12;22.90;66.80
2957;DHT22;1488;51.548;7.222;2022-09-29T04:46:38;22.90;66.80
2957;DHT22;1488;51.548;7.222;2022-09-29T04:49:07;22.90;66.80
2957;DHT22;1488;51.548;7.222;2022-09-29T04:51:34;22.90;66.80
2957;DHT22;1488;51.548;7.222;2022-09-29T04:54:01;22.90;66.70
2957;DHT22;1488;51.548;7.222;2022-09-29T04:56:27;22.90;66.60
2957;DHT22;1488;51.548;7.222;2022-09-29T04:58:56;22.90;66.60
2957;DHT22;1488;51.548;7.222;2022-09-29T05:01:23;22.90;66.60
2957;DHT22;1488;51.548;7.222;2022-09-29T05:03:50;22.90;66.60
2957;DHT22;1488;51.548;7.222;2022-09-29T05:06:18;22.90;66.60
2957;DHT22;1488;51.548;7.222;2022-09-29T05:08:45;22.90;66.60
2957;DHT22;1488;51.548;7.222;2022-09-29T05:11:12;22.90;66.60
2957;DHT22;1488;51.548;7.222;2022-09-29T05:13:39;22.80;66.40
2957;DHT22;1488;51.548;7.222;2022-09-29T05:16:06;22.80;66.50
2957;DHT22;1488;51.548;7.222;2022-09-29T05:18:33;22.80;66.40
2957;DHT22;1488;51.548;7.222;2022-09-29T05:21:04;22.80;66.40
2957;DHT22;1488;51.548;7.222;2022-09-29T05:23:32;22.80;66.40
2957;DHT22;1488;51.548;7.222;2022-09-29T05:26:03;22.80;66.40
2957;DHT22;1488;51.548;7.222;2022-09-29T05:28:31;22.80;66.40
2957;DHT22;1488;51.548;7.222;2022-09-29T05:31:02;22.80;66.40
2957;DHT22;1488;51.548;7.222;2022-09-29T05:33:29;22.80;66.40
2957;DHT22;1488;51.548;7.222;2022-09-29T05:35:56;22.80;66.40
2957;DHT22;1488;51.548;7.222;2022-09-29T05:38:23;22.80;66.30
2957;DHT22;1488;51.548;7.222;2022-09-29T05:40:52;22.80;66.30
2957;DHT22;1488;51.548;7.222;2022-09-29T05:43:19;22.80;66.30
2957;DHT22;1488;51.548;7.222;2022-09-29T05:45:46;22.80;66.30
2957;DHT22;1488;51.548;7.222;2022-09-29T05:48:13;22.80;66.20
2957;DHT22;1488;51.548;7.222;2022-09-29T05:50:39;22.80;66.20
2957;DHT22;1488;51.548;7.222;2022-09-29T05:53:07;23.00;66.40
2957;DHT22;1488;51.548;7.222;2022-09-29T05:55:35;22.80;66.20
2957;DHT22;1488;51.548;7.222;2022-09-29T05:58:04;22.80;66.00
2957;DHT22;1488;51.548;7.222;2022-09-29T06:00:31;22.80;65.70
2957;DHT22;1488;51.548;7.222;2022-09-29T06:02:59;22.80;65.40
2957;DHT22;1488;51.548;7.222;2022-09-29T06:05:26;22.70;65.20
2957;DHT22;1488;51.548;7.222;2022-09-29T06:07:54;22.70;65.60
2957;DHT22;1488;51.548;7.222;2022-09-29T06:10:21;22.80;66.20
2957;DHT22;1488;51.548;7.222;2022-09-29T06:12:47;22.80;66.10
2957;DHT22;1488;51.548;7.222;2022-09-29T06:15:16;22.80;66.00
2957;DHT22;1488;51.548;7.222;2022-09-29T06:17:42;22.80;66.00
2957;DHT22;1488;51.548;7.222;2022-09-29T06:20:09;22.80;65.90
2957;DHT22;1488;51.548;7.222;2022-09-29T06:22:36;22.90;65.90
2957;DHT22;1488;51.548;7.222;2022-09-29T06:25:04;22.90;65.90
2957;DHT22;1488;51.548;7.222;2022-09-29T06:27:31;22.80;65.80
2957;DHT22;1488;51.548;7.222;2022-09-29T06:29:57;22.80;65.90
2957;DHT22;1488;51.548;7.222;2022-09-29T06:32:26;22.90;66.20
2957;DHT22;1488;51.548;7.222;2022-09-29T06:34:53;22.80;66.10
2957;DHT22;1488;51.548;7.222;2022-09-29T06:37:38;22.80;66.30
2957;DHT22;1488;51.548;7.222;2022-09-29T06:40:07;22.80;66.30
2957;DHT22;1488;51.548;7.222;2022-09-29T06:42:34;22.90;66.40
2957;DHT22;1488;51.548;7.222;2022-09-29T06:45:01;22.80;66.40
2957;DHT22;1488;51.548;7.222;2022-09-29T06:47:29;22.80;66.50
2957;DHT22;1488;51.548;7.222;2022-09-29T06:49:56;22.90;66.50
2957;DHT22;1488;51.548;7.222;2022-09-29T06:52:26;22.90;66.50
2957;DHT22;1488;51.548;7.222;2022-09-29T06:54:53;23.00;66.50
2957;DHT22;1488;51.548;7.222;2022-09-29T06:57:20;23.00;66.30
2957;DHT22;1488;51.548;7.222;2022-09-29T06:59:46;23.00;66.40
2957;DHT22;1488;51.548;7.222;2022-09-29T07:02:13;23.00;66.30
2957;DHT22;1488;51.548;7.222;2022-09-29T07:04:41;23.00;66.20
2957;DHT22;1488;51.548;7.222;2022-09-29T07:07:08;23.00;66.30
2957;DHT22;1488;51.548;7.222;2022-09-29T07:09:35;23.00;66.30
2957;DHT22;1488;51.548;7.222;2022-09-29T07:12:02;23.00;66.30
2957;DHT22;1488;51.548;7.222;2022-09-29T07:14:30;23.00;66.40
2957;DHT22;1488;51.548;7.222;2022-09-29T07:16:57;23.00;66.40
2957;DHT22;1488;51.548;7.222;2022-09-29T07:19:25;23.00;66.40
2957;DHT22;1488;51.548;7.222;2022-09-29T07:21:53;23.00;66.40
2957;DHT22;1488;51.548;7.222;2022-09-29T07:24:20;23.00;66.40
2957;DHT22;1488;51.548;7.222;2022-09-29T07:26:48;23.00;66.30
2957;DHT22;1488;51.548;7.222;2022-09-29T07:29:15;23.00;66.30
2957;DHT22;1488;51.548;7.222;2022-09-29T07:31:42;23.10;66.40
2957;DHT22;1488;51.548;7.222;2022-09-29T07:34:10;23.10;66.40
2957;DHT22;1488;51.548;7.222;2022-09-29T07:36:41;23.10;66.40
2957;DHT22;1488;51.548;7.222;2022-09-29T07:39:09;23.10;66.40
2957;DHT22;1488;51.548;7.222;2022-09-29T07:41:36;23.10;66.50
2957;DHT22;1488;51.548;7.222;2022-09-29T07:44:03;23.10;66.60
2957;DHT22;1488;51.548;7.222;2022-09-29T07:46:30;23.10;66.60
2957;DHT22;1488;51.548;7.222;2022-09-29T07:48:58;23.10;66.50
2957;DHT22;1488;51.548;7.222;2022-09-29T07:51:25;23.30;66.60
2957;DHT22;1488;51.548;7.222;2022-09-29T07:53:52;23.10;66.40
2957;DHT22;1488;51.548;7.222;2022-09-29T07:56:21;23.10;66.20
2957;DHT22;1488;51.548;7.222;2022-09-29T07:58:50;23.30;66.30
2957;DHT22;1488;51.548;7.222;2022-09-29T08:01:19;23.20;66.00
2957;DHT22;1488;51.548;7.222;2022-09-29T08:03:53;23.20;66.00
2957;DHT22;1488;51.548;7.222;2022-09-29T08:06:31;23.20;66.20
2957;DHT22;1488;51.548;7.222;2022-09-29T08:08:59;23.20;66.40
2957;DHT22;1488;51.548;7.222;2022-09-29T08:11:28;23.20;66.40
2957;DHT22;1488;51.548;7.222;2022-09-29T08:13:55;23.20;66.50
2957;DHT22;1488;51.548;7.222;2022-09-29T08:19:36;23.30;66.60
2957;DHT22;1488;51.548;7.222;2022-09-29T08:22:04;23.40;66.60
2957;DHT22;1488;51.548;7.222;2022-09-29T08:24:31;23.40;66.80
2957;DHT22;1488;51.548;7.222;2022-09-29T08:27:03;23.50;66.80
2957;DHT22;1488;51.548;7.222;2022-09-29T08:29:31;23.50;66.70
2957;DHT22;1488;51.548;7.222;2022-09-29T08:31:58;23.50;66.80
2957;DHT22;1488;51.548;7.222;2022-09-29T08:34:25;23.50;66.70
2957;DHT22;1488;51.548;7.222;2022-09-29T08:36:52;23.60;66.90
2957;DHT22;1488;51.548;7.222;2022-09-29T08:39:21;23.60;66.90
2957;DHT22;1488;51.548;7.222;2022-09-29T08:41:51;23.70;67.00
2957;DHT22;1488;51.548;7.222;2022-09-29T08:44:27;23.70;67.10
2957;DHT22;1488;51.548;7.222;2022-09-29T08:49:32;23.80;67.20
2957;DHT22;1488;51.548;7.222;2022-09-29T08:52:04;23.80;67.20
2957;DHT22;1488;51.548;7.222;2022-09-29T08:54:34;23.80;67.20
2957;DHT22;1488;51.548;7.222;2022-09-29T08:57:03;24.00;67.50
2957;DHT22;1488;51.548;7.222;2022-09-29T08:59:32;23.90;67.30
2957;DHT22;1488;51.548;7.222;2022-09-29T09:02:24;23.90;67.30
2957;DHT22;1488;51.548;7.222;2022-09-29T09:05:07;24.00;67.30
2957;DHT22;1488;51.548;7.222;2022-09-29T09:07:43;24.00;67.40
2957;DHT22;1488;51.548;7.222;2022-09-29T09:10:23;24.00;67.40
2957;DHT22;1488;51.548;7.222;2022-09-29T09:13:09;24.00;67.40
2957;DHT22;1488;51.548;7.222;2022-09-29T09:15:51;24.10;67.40
2957;DHT22;1488;51.548;7.222;2022-09-29T09:18:50;24.10;67.40
2957;DHT22;1488;51.548;7.222;2022-09-29T09:21:27;24.10;67.30
2957;DHT22;1488;51.548;7.222;2022-09-29T09:24:07;24.10;67.30
2957;DHT22;1488;51.548;7.222;2022-09-29T09:26:41;24.10;66.90
2957;DHT22;1488;51.548;7.222;2022-09-29T09:29:12;24.10;66.70
2957;DHT22;1488;51.548;7.222;2022-09-29T09:31:45;24.10;66.60
2957;DHT22;1488;51.548;7.222;2022-09-29T09:34:19;24.10;66.60
2957;DHT22;1488;51.548;7.222;2022-09-29T09:36:51;24.20;65.70
2957;DHT22;1488;51.548;7.222;2022-09-29T09:39:24;24.10;62.90
2957;DHT22;1488;51.548;7.222;2022-09-29T09:41:54;24.00;61.10
2957;DHT22;1488;51.548;7.222;2022-09-29T09:44:25;23.90;59.60
2957;DHT22;1488;51.548;7.222;2022-09-29T09:46:57;23.90;59.50
2957;DHT22;1488;51.548;7.222;2022-09-29T09:49:28;23.90;60.10
2957;DHT22;1488;51.548;7.222;2022-09-29T09:52:00;23.90;62.10
2957;DHT22;1488;51.548;7.222;2022-09-29T09:54:32;24.00;63.50
2957;DHT22;1488;51.548;7.222;2022-09-29T09:57:08;24.00;65.10
2957;DHT22;1488;51.548;7.222;2022-09-29T09:59:48;24.00;64.70
2957;DHT22;1488;51.548;7.222;2022-09-29T10:02:20;24.00;65.00
2957;DHT22;1488;51.548;7.222;2022-09-29T10:04:50;24.00;66.00
2957;DHT22;1488;51.548;7.222;2022-09-29T10:07:18;24.00;65.30
2957;DHT22;1488;51.548;7.222;2022-09-29T10:09:46;24.00;65.40
2957;DHT22;1488;51.548;7.222;2022-09-29T10:12:14;24.10;65.50
2957;DHT22;1488;51.548;7.222;2022-09-29T10:14:45;24.10;65.50
2957;DHT22;1488;51.548;7.222;2022-09-29T10:17:13;24.10;65.70
2957;DHT22;1488;51.548;7.222;2022-09-29T10:19:55;24.10;65.80
2957;DHT22;1488;51.548;7.222;2022-09-29T10:22:23;24.10;65.10
2957;DHT22;1488;51.548;7.222;2022-09-29T10:24:52;24.10;65.30
2957;DHT22;1488;51.548;7.222;2022-09-29T10:27:22;24.10;65.40
2957;DHT22;1488;51.548;7.222;2022-09-29T10:29:51;24.20;65.50
2957;DHT22;1488;51.548;7.222;2022-09-29T10:32:24;24.30;65.70
2957;DHT22;1488;51.548;7.222;2022-09-29T10:35:05;24.40;65.80
2957;DHT22;1488;51.548;7.222;2022-09-29T10:37:37;24.40;65.90
2957;DHT22;1488;51.548;7.222;2022-09-29T10:40:15;24.50;66.10
2957;DHT22;1488;51.548;7.222;2022-09-29T10:42:44;24.50;66.00
2957;DHT22;1488;51.548;7.222;2022-09-29T10:45:15;24.50;66.10
2957;DHT22;1488;51.548;7.222;2022-09-29T10:47:47;24.60;66.20
2957;DHT22;1488;51.548;7.222;2022-09-29T10:50:36;24.70;66.40
2957;DHT22;1488;51.548;7.222;2022-09-29T10:53:17;24.70;66.50
2957;DHT22;1488;51.548;7.222;2022-09-29T10:55:47;24.80;66.50
2957;DHT22;1488;51.548;7.222;2022-09-29T10:58:20;24.80;66.60
2957;DHT22;1488;51.548;7.222;2022-09-29T11:01:02;24.80;66.60
2957;DHT22;1488;51.548;7.222;2022-09-29T11:03:32;24.90;66.60
2957;DHT22;1488;51.548;7.222;2022-09-29T11:06:05;24.90;66.80
2957;DHT22;1488;51.548;7.222;2022-09-29T11:08:33;25.00;66.90
2957;DHT22;1488;51.548;7.222;2022-09-29T11:11:20;25.00;66.80
2957;DHT22;1488;51.548;7.222;2022-09-29T11:13:48;25.10;67.00
2957;DHT22;1488;51.548;7.222;2022-09-29T11:16:20;25.10;67.00
2957;DHT22;1488;51.548;7.222;2022-09-29T11:18:51;25.10;66.90
2957;DHT22;1488;51.548;7.222;2022-09-29T11:21:54;25.10;67.00
2957;DHT22;1488;51.548;7.222;2022-09-29T11:24:41;25.20;67.00
2957;DHT22;1488;51.548;7.222;2022-09-29T11:27:22;25.20;67.20
2957;DHT22;1488;51.548;7.222;2022-09-29T11:29:59;25.20;67.20
2957;DHT22;1488;51.548;7.222;2022-09-29T11:32:39;25.20;67.20
2957;DHT22;1488;51.548;7.222;2022-09-29T11:35:26;25.30;67.30
2957;DHT22;1488;51.548;7.222;2022-09-29T11:38:20;25.30;67.30
2957;DHT22;1488;51.548;7.222;2022-09-29T11:41:33;25.30;67.30
2957;DHT22;1488;51.548;7.222;2022-09-29T11:44:15;25.30;67.40
2957;DHT22;1488;51.548;7.222;2022-09-29T11:54:42;25.30;67.20
2957;DHT22;1488;51.548;7.222;2022-09-29T11:57:21;25.40;67.20
2957;DHT22;1488;51.548;7.222;2022-09-29T12:00:02;25.40;67.30
2957;DHT22;1488;51.548;7.222;2022-09-29T12:05:06;25.20;67.40
2957;DHT22;1488;51.548;7.222;2022-09-29T12:07:43;25.30;67.50
2957;DHT22;1488;51.548;7.222;2022-09-29T12:10:34;25.20;67.20
2957;DHT22;1488;51.548;7.222;2022-09-29T12:13:11;25.20;67.30
2957;DHT22;1488;51.548;7.222;2022-09-29T12:15:50;25.30;67.60
2957;DHT22;1488;51.548;7.222;2022-09-29T12:18:21;25.10;67.40
2957;DHT22;1488;51.548;7.222;2022-09-29T12:20:52;25.10;67.40
2957;DHT22;1488;51.548;7.222;2022-09-29T12:23:22;25.00;67.50
2957;DHT22;1488;51.548;7.222;2022-09-29T12:25:57;25.00;67.40
2957;DHT22;1488;51.548;7.222;2022-09-29T12:28:49;25.00;67.50
2957;DHT22;1488;51.548;7.222;2022-09-29T12:31:47;25.10;67.70
2957;DHT22;1488;51.548;7.222;2022-09-29T12:34:17;25.10;68.00
2957;DHT22;1488;51.548;7.222;2022-09-29T12:36:49;24.90;67.70
2957;DHT22;1488;51.548;7.222;2022-09-29T12:39:32;24.90;67.50
2957;DHT22;1488;51.548;7.222;2022-09-29T12:42:11;25.00;67.50
2957;DHT22;1488;51.548;7.222;2022-09-29T12:44:43;25.00;67.60
2957;DHT22;1488;51.548;7.222;2022-09-29T12:47:19;25.10;67.70
2957;DHT22;1488;51.548;7.222;2022-09-29T12:49:57;25.00;67.60
2957;DHT22;1488;51.548;7.222;2022-09-29T12:52:35;24.90;67.60
2957;DHT22;1488;51.548;7.222;2022-09-29T12:55:12;24.90;67.60
2957;DHT22;1488;51.548;7.222;2022-09-29T12:57:46;24.90;67.50
2957;DHT22;1488;51.548;7.222;2022-09-29T13:00:15;24.90;67.60
2957;DHT22;1488;51.548;7.222;2022-09-29T13:06:05;24.90;67.70
2957;DHT22;1488;51.548;7.222;2022-09-29T13:08:56;24.80;67.70
2957;DHT22;1488;51.548;7.222;2022-09-29T13:11:50;24.80;67.80
2957;DHT22;1488;51.548;7.222;2022-09-29T13:14:46;24.80;67.80
2957;DHT22;1488;51.548;7.222;2022-09-29T13:17:25;25.00;67.90
2957;DHT22;1488;51.548;7.222;2022-09-29T13:20:16;24.90;68.70
2957;DHT22;1488;51.548;7.222;2022-09-29T13:23:21;24.90;67.90
2957;DHT22;1488;51.548;7.222;2022-09-29T13:26:10;24.90;68.10
2957;DHT22;1488;51.548;7.222;2022-09-29T13:28:41;25.00;68.30
2957;DHT22;1488;51.548;7.222;2022-09-29T13:31:14;24.90;68.00
2957;DHT22;1488;51.548;7.222;2022-09-29T13:33:46;24.80;66.30
2957;DHT22;1488;51.548;7.222;2022-09-29T13:36:21;24.80;66.50
2957;DHT22;1488;51.548;7.222;2022-09-29T13:38:53;24.80;67.10
2957;DHT22;1488;51.548;7.222;2022-09-29T13:41:35;24.80;67.50
2957;DHT22;1488;51.548;7.222;2022-09-29T13:44:20;24.80;67.70
2957;DHT22;1488;51.548;7.222;2022-09-29T13:46:50;24.80;67.80
2957;DHT22;1488;51.548;7.222;2022-09-29T13:49:26;24.90;67.90
2957;DHT22;1488;51.548;7.222;2022-09-29T13:51:55;25.00;67.90
2957;DHT22;1488;51.548;7.222;2022-09-29T13:54:33;25.00;68.00
2957;DHT22;1488;51.548;7.222;2022-09-29T13:57:27;25.00;68.10
2957;DHT22;1488;51.548;7.222;2022-09-29T14:03:24;25.00;68.40
2957;DHT22;1488;51.548;7.222;2022-09-29T14:06:20;25.00;68.50
2957;DHT22;1488;51.548;7.222;2022-09-29T14:08:50;25.00;68.50
2957;DHT22;1488;51.548;7.222;2022-09-29T14:11:21;25.00;68.70
2957;DHT22;1488;51.548;7.222;2022-09-29T14:13:56;24.90;68.70
2957;DHT22;1488;51.548;7.222;2022-09-29T18:48:15;24.10;69.30
2957;DHT22;1488;51.548;7.222;2022-09-29T18:56:40;24.10;69.10
2957;DHT22;1488;51.548;7.222;2022-09-29T19:01:36;24.10;69.10
2957;DHT22;1488;51.548;7.222;2022-09-29T19:04:08;24.30;69.40
2957;DHT22;1488;51.548;7.222;2022-09-29T19:15:32;24.20;69.30
2957;DHT22;1488;51.548;7.222;2022-09-29T19:18:01;24.10;69.40
2957;DHT22;1488;51.548;7.222;2022-09-29T19:20:30;24.10;69.70
2957;DHT22;1488;51.548;7.222;2022-09-29T19:23:01;24.10;70.50
2957;DHT22;1488;51.548;7.222;2022-09-29T19:25:30;24.20;69.50
2957;DHT22;1488;51.548;7.222;2022-09-29T19:27:58;24.30;69.50
2957;DHT22;1488;51.548;7.222;2022-09-29T19:30:33;24.20;69.30
2957;DHT22;1488;51.548;7.222;2022-09-29T19:33:01;24.20;69.40
2957;DHT22;1488;51.548;7.222;2022-09-29T19:35:42;24.10;69.20
2957;DHT22;1488;51.548;7.222;2022-09-29T19:38:21;24.00;69.10
2957;DHT22;1488;51.548;7.222;2022-09-29T19:40:50;24.20;69.30
2957;DHT22;1488;51.548;7.222;2022-09-29T19:43:35;24.10;69.20
2957;DHT22;1488;51.548;7.222;2022-09-29T19:46:21;24.20;69.10
2957;DHT22;1488;51.548;7.222;2022-09-29T19:48:56;24.00;69.00
2957;DHT22;1488;51.548;7.222;2022-09-29T19:51:25;24.30;69.60
2957;DHT22;1488;51.548;7.222;2022-09-29T19:54:09;24.10;69.10
2957;DHT22;1488;51.548;7.222;2022-09-29T20:00:02;24.20;69.10
2957;DHT22;1488;51.548;7.222;2022-09-29T20:02:29;24.10;69.10
2957;DHT22;1488;51.548;7.222;2022-09-29T20:04:56;24.10;69.00
2957;DHT22;1488;51.548;7.222;2022-09-29T20:07:24;24.10;69.00
2957;DHT22;1488;51.548;7.222;2022-09-29T20:09:51;24.20;69.10
2957;DHT22;1488;51.548;7.222;2022-09-29T20:12:18;24.20;69.10
2957;DHT22;1488;51.548;7.222;2022-09-29T20:20:41;24.20;69.20
2957;DHT22;1488;51.548;7.222;2022-09-29T20:23:10;24.10;69.50
2957;DHT22;1488;51.548;7.222;2022-09-29T20:25:37;24.20;69.50
2957;DHT22;1488;51.548;7.222;2022-09-29T20:38:16;24.20;69.90
2957;DHT22;1488;51.548;7.222;2022-09-29T20:40:43;24.10;70.00
2957;DHT22;1488;51.548;7.222;2022-09-29T20:43:10;24.10;70.00
2957;DHT22;1488;51.548;7.222;2022-09-29T20:45:47;24.10;69.90
2957;DHT22;1488;51.548;7.222;2022-09-29T20:48:14;24.10;69.40
2957;DHT22;1488;51.548;7.222;2022-09-29T20:50:43;24.10;69.30
2957;DHT22;1488;51.548;7.222;2022-09-29T20:53:13;24.20;69.40
2957;DHT22;1488;51.548;7.222;2022-09-29T21:04:55;24.20;69.70
2957;DHT22;1488;51.548;7.222;2022-09-29T21:07:23;24.10;69.90
2957;DHT22;1488;51.548;7.222;2022-09-29T21:10:08;24.10;69.90
2957;DHT22;1488;51.548;7.222;2022-09-29T21:19:17;24.20;69.80
2957;DHT22;1488;51.548;7.222;2022-09-29T21:21:46;24.10;69.90
2957;DHT22;1488;51.548;7.222;2022-09-29T21:24:18;24.10;70.00
2957;DHT22;1488;51.548;7.222;2022-09-29T21:29:15;24.10;69.80
2957;DHT22;1488;51.548;7.222;2022-09-29T21:32:02;24.10;69.80
2957;DHT22;1488;51.548;7.222;2022-09-29T21:34:31;24.10;69.90
2957;DHT22;1488;51.548;7.222;2022-09-29T21:37:01;24.10;69.80
2957;DHT22;1488;51.548;7.222;2022-09-29T21:39:28;24.10;69.80
2957;DHT22;1488;51.548;7.222;2022-09-29T21:41:56;24.10;69.70
2957;DHT22;1488;51.548;7.222;2022-09-29T21:44:22;24.10;69.60
2957;DHT22;1488;51.548;7.222;2022-09-29T21:46:50;24.10;69.60
2957;DHT22;1488;51.548;7.222;2022-09-29T21:49:17;24.10;69.60
2957;DHT22;1488;51.548;7.222;2022-09-29T21:51:46;24.10;69.60
2957;DHT22;1488;51.548;7.222;2022-09-29T21:54:15;24.10;69.50
2957;DHT22;1488;51.548;7.222;2022-09-29T21:56:43;24.10;69.50
2957;DHT22;1488;51.548;7.222;2022-09-29T21:59:12;24.10;69.50
2957;DHT22;1488;51.548;7.222;2022-09-29T22:01:40;24.10;69.80
2957;DHT22;1488;51.548;7.222;2022-09-29T22:04:08;24.10;69.40
2957;DHT22;1488;51.548;7.222;2022-09-29T22:06:36;24.10;69.40
2957;DHT22;1488;51.548;7.222;2022-09-29T22:09:05;24.10;69.40
2957;DHT22;1488;51.548;7.222;2022-09-29T22:11:34;24.10;69.40
2957;DHT22;1488;51.548;7.222;2022-09-29T22:14:02;24.10;69.30
2957;DHT22;1488;51.548;7.222;2022-09-29T22:16:30;24.10;69.30
2957;DHT22;1488;51.548;7.222;2022-09-29T22:18:59;24.10;69.30
2957;DHT22;1488;51.548;7.222;2022-09-29T22:21:26;24.10;69.20